sensor_id;sensor_type;location;lat;lon;timestamp;P1;durP1;ratioP1;P2;durP2;ratioP2
70675;SDS011;59069;52.242;20.900;2022-10-15T00:00:52;56.35;;;25.08;;
70675;SDS011;59069;52.242;20.900;2022-10-15T00:03:18;57.10;;;26.37;;
70675;SDS011;59069;52.242;20.900;2022-10-15T00:05:43;54.47;;;26.27;;
70675;SDS011;59069;52.242;20.900;2022-10-15T00:08:09;68.17;;;26.53;;
70675;SDS011;59069;52.242;20.900;2022-10-15T00:10:35;51.90;;;25.20;;
70675;SDS011;59069;52.242;20.900;2022-10-15T00:13:01;44.50;;;22.87;;
70675;SDS011;59069;52.242;20.900;2022-10-15T00:15:27;52.63;;;25.45;;
70675;SDS011;59069;52.242;20.900;2022-10-15T00:17:53;50.20;;;25.02;;
70675;SDS011;59069;52.242;20.900;2022-10-15T00:20:19;47.40;;;25.30;;
70675;SDS011;59069;52.242;20.900;2022-10-15T00:22:44;49.70;;;25.27;;
70675;SDS011;59069;52.242;20.900;2022-10-15T00:25:10;51.83;;;24.77;;
70675;SDS011;59069;52.242;20.900;2022-10-15T00:27:35;53.37;;;25.70;;
70675;SDS011;59069;52.242;20.900;2022-10-15T00:30:01;48.72;;;24.42;;
70675;SDS011;59069;52.242;20.900;2022-10-15T00:32:29;49.63;;;24.90;;
70675;SDS011;59069;52.242;20.900;2022-10-15T00:34:55;49.95;;;24.75;;
70675;SDS011;59069;52.242;20.900;2022-10-15T00:37:20;55.03;;;25.97;;
70675;SDS011;59069;52.242;20.900;2022-10-15T00:39:46;51.50;;;24.92;;
70675;SDS011;59069;52.242;20.900;2022-10-15T00:42:12;48.03;;;24.27;;
70675;SDS011;59069;52.242;20.900;2022-10-15T00:47:16;48.57;;;24.77;;
70675;SDS011;59069;52.242;20.900;2022-10-15T00:49:43;50.33;;;24.95;;
70675;SDS011;59069;52.242;20.900;2022-10-15T00:52:24;49.25;;;25.80;;
70675;SDS011;59069;52.242;20.900;2022-10-15T00:55:05;52.92;;;24.90;;
70675;SDS011;59069;52.242;20.900;2022-10-15T00:57:50;51.58;;;24.52;;
70675;SDS011;59069;52.242;20.900;2022-10-15T01:00:17;51.37;;;24.63;;
70675;SDS011;59069;52.242;20.900;2022-10-15T01:02:43;49.40;;;24.80;;
70675;SDS011;59069;52.242;20.900;2022-10-15T01:05:09;49.15;;;24.58;;
70675;SDS011;59069;52.242;20.900;2022-10-15T01:07:36;52.15;;;25.20;;
70675;SDS011;59069;52.242;20.900;2022-10-15T01:10:02;53.40;;;25.45;;
70675;SDS011;59069;52.242;20.900;2022-10-15T01:12:42;53.37;;;26.43;;
70675;SDS011;59069;52.242;20.900;2022-10-15T01:18:01;49.33;;;25.20;;
70675;SDS011;59069;52.242;20.900;2022-10-15T01:20:43;52.45;;;25.60;;
70675;SDS011;59069;52.242;20.900;2022-10-15T01:31:44;52.42;;;25.77;;
70675;SDS011;59069;52.242;20.900;2022-10-15T01:37:29;50.65;;;24.98;;
70675;SDS011;59069;52.242;20.900;2022-10-15T01:40:10;53.60;;;24.83;;
70675;SDS011;59069;52.242;20.900;2022-10-15T01:42:50;49.30;;;25.65;;
70675;SDS011;59069;52.242;20.900;2022-10-15T01:45:39;51.10;;;25.45;;
70675;SDS011;59069;52.242;20.900;2022-10-15T01:48:10;55.53;;;25.52;;
70675;SDS011;59069;52.242;20.900;2022-10-15T01:50:38;54.30;;;25.38;;
70675;SDS011;59069;52.242;20.900;2022-10-15T01:53:15;54.30;;;25.97;;
70675;SDS011;59069;52.242;20.900;2022-10-15T01:55:43;51.72;;;25.15;;
70675;SDS011;59069;52.242;20.900;2022-10-15T01:58:11;52.17;;;24.67;;
70675;SDS011;59069;52.242;20.900;2022-10-15T02:00:40;55.05;;;25.42;;
70675;SDS011;59069;52.242;20.900;2022-10-15T02:03:07;54.47;;;25.25;;
70675;SDS011;59069;52.242;20.900;2022-10-15T02:05:39;52.40;;;25.07;;
70675;SDS011;59069;52.242;20.900;2022-10-15T02:11:14;51.25;;;26.15;;
70675;SDS011;59069;52.242;20.900;2022-10-15T02:13:43;52.03;;;25.43;;
70675;SDS011;59069;52.242;20.900;2022-10-15T02:26:38;52.10;;;25.43;;
70675;SDS011;59069;52.242;20.900;2022-10-15T02:29:06;48.77;;;24.17;;
70675;SDS011;59069;52.242;20.900;2022-10-15T02:31:36;49.13;;;25.15;;
70675;SDS011;59069;52.242;20.900;2022-10-15T02:34:05;51.50;;;24.92;;
70675;SDS011;59069;52.242;20.900;2022-10-15T02:36:32;52.92;;;25.67;;
70675;SDS011;59069;52.242;20.900;2022-10-15T02:38:59;52.65;;;25.83;;
70675;SDS011;59069;52.242;20.900;2022-10-15T02:41:29;55.27;;;25.03;;
70675;SDS011;59069;52.242;20.900;2022-10-15T02:43:58;50.65;;;25.02;;
70675;SDS011;59069;52.242;20.900;2022-10-15T02:46:24;53.37;;;25.20;;
70675;SDS011;59069;52.242;20.900;2022-10-15T02:48:49;50.27;;;24.97;;
70675;SDS011;59069;52.242;20.900;2022-10-15T02:51:14;48.57;;;25.07;;
70675;SDS011;59069;52.242;20.900;2022-10-15T02:53:40;52.27;;;25.57;;
70675;SDS011;59069;52.242;20.900;2022-10-15T02:56:05;56.23;;;25.50;;
70675;SDS011;59069;52.242;20.900;2022-10-15T02:58:30;54.05;;;26.45;;
70675;SDS011;59069;52.242;20.900;2022-10-15T03:00:56;56.00;;;25.43;;
70675;SDS011;59069;52.242;20.900;2022-10-15T03:03:21;55.77;;;26.07;;
70675;SDS011;59069;52.242;20.900;2022-10-15T03:05:47;56.75;;;27.42;;
70675;SDS011;59069;52.242;20.900;2022-10-15T03:08:12;52.10;;;26.43;;
70675;SDS011;59069;52.242;20.900;2022-10-15T03:10:38;54.50;;;26.33;;
70675;SDS011;59069;52.242;20.900;2022-10-15T03:13:04;52.53;;;26.00;;
70675;SDS011;59069;52.242;20.900;2022-10-15T03:15:30;55.97;;;26.27;;
70675;SDS011;59069;52.242;20.900;2022-10-15T03:17:55;57.17;;;26.33;;
70675;SDS011;59069;52.242;20.900;2022-10-15T03:20:21;59.88;;;25.95;;
70675;SDS011;59069;52.242;20.900;2022-10-15T03:22:46;55.30;;;26.37;;
70675;SDS011;59069;52.242;20.900;2022-10-15T03:25:12;52.70;;;25.20;;
70675;SDS011;59069;52.242;20.900;2022-10-15T03:27:37;49.97;;;25.00;;
70675;SDS011;59069;52.242;20.900;2022-10-15T03:30:03;51.17;;;24.80;;
70675;SDS011;59069;52.242;20.900;2022-10-15T03:32:28;52.50;;;26.20;;
70675;SDS011;59069;52.242;20.900;2022-10-15T03:34:54;51.47;;;25.70;;
70675;SDS011;59069;52.242;20.900;2022-10-15T03:37:19;53.33;;;24.88;;
70675;SDS011;59069;52.242;20.900;2022-10-15T03:39:44;55.70;;;26.83;;
70675;SDS011;59069;52.242;20.900;2022-10-15T03:42:10;57.20;;;26.33;;
70675;SDS011;59069;52.242;20.900;2022-10-15T03:44:35;49.77;;;25.10;;
70675;SDS011;59069;52.242;20.900;2022-10-15T03:47:00;56.38;;;24.98;;
70675;SDS011;59069;52.242;20.900;2022-10-15T03:49:26;55.37;;;26.13;;
70675;SDS011;59069;52.242;20.900;2022-10-15T03:51:51;52.63;;;25.30;;
70675;SDS011;59069;52.242;20.900;2022-10-15T03:54:17;54.17;;;24.47;;
70675;SDS011;59069;52.242;20.900;2022-10-15T03:56:42;51.17;;;24.13;;
70675;SDS011;59069;52.242;20.900;2022-10-15T03:59:07;51.78;;;24.13;;
70675;SDS011;59069;52.242;20.900;2022-10-15T04:01:33;48.20;;;24.63;;
70675;SDS011;59069;52.242;20.900;2022-10-15T04:03:58;47.03;;;23.47;;
70675;SDS011;59069;52.242;20.900;2022-10-15T04:06:23;49.43;;;23.93;;
70675;SDS011;59069;52.242;20.900;2022-10-15T04:08:49;50.57;;;24.37;;
70675;SDS011;59069;52.242;20.900;2022-10-15T04:11:15;52.03;;;25.03;;
70675;SDS011;59069;52.242;20.900;2022-10-15T04:13:40;53.83;;;26.23;;
70675;SDS011;59069;52.242;20.900;2022-10-15T04:16:06;51.70;;;24.23;;
70675;SDS011;59069;52.242;20.900;2022-10-15T04:18:31;54.17;;;24.07;;
70675;SDS011;59069;52.242;20.900;2022-10-15T04:20:57;49.90;;;25.30;;
70675;SDS011;59069;52.242;20.900;2022-10-15T04:23:23;53.90;;;23.67;;
70675;SDS011;59069;52.242;20.900;2022-10-15T04:25:49;50.38;;;24.58;;
70675;SDS011;59069;52.242;20.900;2022-10-15T04:28:14;48.07;;;23.93;;
70675;SDS011;59069;52.242;20.900;2022-10-15T04:30:40;48.83;;;23.40;;
70675;SDS011;59069;52.242;20.900;2022-10-15T04:33:05;47.67;;;23.53;;
70675;SDS011;59069;52.242;20.900;2022-10-15T04:35:30;50.00;;;22.90;;
70675;SDS011;59069;52.242;20.900;2022-10-15T04:37:56;49.00;;;24.13;;
70675;SDS011;59069;52.242;20.900;2022-10-15T04:40:23;47.33;;;23.42;;
70675;SDS011;59069;52.242;20.900;2022-10-15T04:42:49;88.63;;;43.23;;
70675;SDS011;59069;52.242;20.900;2022-10-15T04:45:14;44.37;;;22.17;;
70675;SDS011;59069;52.242;20.900;2022-10-15T04:47:39;47.57;;;23.73;;
70675;SDS011;59069;52.242;20.900;2022-10-15T04:50:05;45.80;;;22.63;;
70675;SDS011;59069;52.242;20.900;2022-10-15T04:52:30;46.08;;;21.60;;
70675;SDS011;59069;52.242;20.900;2022-10-15T04:54:58;46.05;;;22.23;;
70675;SDS011;59069;52.242;20.900;2022-10-15T04:57:23;51.17;;;23.33;;
70675;SDS011;59069;52.242;20.900;2022-10-15T04:59:50;46.25;;;22.90;;
70675;SDS011;59069;52.242;20.900;2022-10-15T05:02:17;46.13;;;22.67;;
70675;SDS011;59069;52.242;20.900;2022-10-15T05:04:42;46.23;;;23.23;;
70675;SDS011;59069;52.242;20.900;2022-10-15T05:07:08;46.83;;;22.40;;
70675;SDS011;59069;52.242;20.900;2022-10-15T05:09:33;50.85;;;23.80;;
70675;SDS011;59069;52.242;20.900;2022-10-15T05:11:58;45.40;;;22.53;;
70675;SDS011;59069;52.242;20.900;2022-10-15T05:14:24;46.77;;;22.13;;
70675;SDS011;59069;52.242;20.900;2022-10-15T05:16:49;47.93;;;22.23;;
70675;SDS011;59069;52.242;20.900;2022-10-15T05:19:15;44.10;;;22.50;;
70675;SDS011;59069;52.242;20.900;2022-10-15T05:21:41;49.10;;;22.63;;
70675;SDS011;59069;52.242;20.900;2022-10-15T05:24:07;43.85;;;22.23;;
70675;SDS011;59069;52.242;20.900;2022-10-15T05:26:33;45.40;;;22.60;;
70675;SDS011;59069;52.242;20.900;2022-10-15T05:28:59;40.23;;;21.93;;
70675;SDS011;59069;52.242;20.900;2022-10-15T05:31:26;43.03;;;22.10;;
70675;SDS011;59069;52.242;20.900;2022-10-15T05:33:53;43.57;;;22.27;;
70675;SDS011;59069;52.242;20.900;2022-10-15T05:36:20;45.10;;;22.38;;
70675;SDS011;59069;52.242;20.900;2022-10-15T05:38:47;44.10;;;21.58;;
70675;SDS011;59069;52.242;20.900;2022-10-15T05:41:14;42.08;;;21.77;;
70675;SDS011;59069;52.242;20.900;2022-10-15T05:43:40;46.40;;;22.45;;
70675;SDS011;59069;52.242;20.900;2022-10-15T05:46:06;42.33;;;21.83;;
70675;SDS011;59069;52.242;20.900;2022-10-15T05:48:32;41.83;;;21.53;;
70675;SDS011;59069;52.242;20.900;2022-10-15T05:51:01;44.93;;;22.83;;
70675;SDS011;59069;52.242;20.900;2022-10-15T05:53:27;46.83;;;22.63;;
70675;SDS011;59069;52.242;20.900;2022-10-15T05:55:53;41.47;;;21.00;;
70675;SDS011;59069;52.242;20.900;2022-10-15T05:58:19;42.83;;;21.80;;
70675;SDS011;59069;52.242;20.900;2022-10-15T06:00:44;44.47;;;20.70;;
70675;SDS011;59069;52.242;20.900;2022-10-15T06:03:10;43.65;;;21.20;;
70675;SDS011;59069;52.242;20.900;2022-10-15T06:05:38;43.70;;;22.50;;
70675;SDS011;59069;52.242;20.900;2022-10-15T06:08:03;43.63;;;21.05;;
70675;SDS011;59069;52.242;20.900;2022-10-15T06:10:29;40.70;;;21.10;;
70675;SDS011;59069;52.242;20.900;2022-10-15T06:12:54;42.42;;;20.92;;
70675;SDS011;59069;52.242;20.900;2022-10-15T06:15:20;42.13;;;21.23;;
70675;SDS011;59069;52.242;20.900;2022-10-15T06:17:45;41.63;;;21.83;;
70675;SDS011;59069;52.242;20.900;2022-10-15T06:20:11;43.67;;;22.03;;
70675;SDS011;59069;52.242;20.900;2022-10-15T06:22:37;40.13;;;20.48;;
70675;SDS011;59069;52.242;20.900;2022-10-15T06:25:02;44.30;;;20.83;;
70675;SDS011;59069;52.242;20.900;2022-10-15T06:27:28;42.97;;;22.15;;
70675;SDS011;59069;52.242;20.900;2022-10-15T06:29:54;43.40;;;20.75;;
70675;SDS011;59069;52.242;20.900;2022-10-15T06:32:19;40.27;;;21.77;;
70675;SDS011;59069;52.242;20.900;2022-10-15T06:34:45;42.60;;;21.50;;
70675;SDS011;59069;52.242;20.900;2022-10-15T06:37:10;41.50;;;20.23;;
70675;SDS011;59069;52.242;20.900;2022-10-15T06:39:35;38.57;;;19.57;;
70675;SDS011;59069;52.242;20.900;2022-10-15T06:42:01;50.90;;;22.63;;
70675;SDS011;59069;52.242;20.900;2022-10-15T06:44:26;44.37;;;21.93;;
70675;SDS011;59069;52.242;20.900;2022-10-15T06:46:51;44.57;;;21.30;;
70675;SDS011;59069;52.242;20.900;2022-10-15T06:49:17;58.37;;;23.73;;
70675;SDS011;59069;52.242;20.900;2022-10-15T06:51:42;43.27;;;22.23;;
70675;SDS011;59069;52.242;20.900;2022-10-15T06:54:07;44.78;;;22.13;;
70675;SDS011;59069;52.242;20.900;2022-10-15T06:56:33;42.53;;;21.13;;
70675;SDS011;59069;52.242;20.900;2022-10-15T06:58:58;44.43;;;21.03;;
70675;SDS011;59069;52.242;20.900;2022-10-15T07:01:24;39.83;;;20.30;;
70675;SDS011;59069;52.242;20.900;2022-10-15T07:03:49;37.90;;;19.77;;
70675;SDS011;59069;52.242;20.900;2022-10-15T07:06:15;41.10;;;19.73;;
70675;SDS011;59069;52.242;20.900;2022-10-15T07:08:41;37.25;;;20.17;;
70675;SDS011;59069;52.242;20.900;2022-10-15T07:11:07;41.33;;;20.77;;
70675;SDS011;59069;52.242;20.900;2022-10-15T07:13:33;37.20;;;20.48;;
70675;SDS011;59069;52.242;20.900;2022-10-15T07:16:02;39.88;;;20.55;;
70675;SDS011;59069;52.242;20.900;2022-10-15T07:18:31;42.40;;;20.87;;
70675;SDS011;59069;52.242;20.900;2022-10-15T07:20:57;39.28;;;19.70;;
70675;SDS011;59069;52.242;20.900;2022-10-15T07:23:23;36.83;;;20.17;;
70675;SDS011;59069;52.242;20.900;2022-10-15T07:25:48;34.53;;;18.85;;
70675;SDS011;59069;52.242;20.900;2022-10-15T07:28:13;32.97;;;18.17;;
70675;SDS011;59069;52.242;20.900;2022-10-15T07:30:39;37.33;;;18.97;;
70675;SDS011;59069;52.242;20.900;2022-10-15T07:33:04;34.50;;;18.43;;
70675;SDS011;59069;52.242;20.900;2022-10-15T07:35:29;35.13;;;18.43;;
70675;SDS011;59069;52.242;20.900;2022-10-15T07:37:55;37.40;;;19.88;;
70675;SDS011;59069;52.242;20.900;2022-10-15T07:40:24;35.70;;;19.07;;
70675;SDS011;59069;52.242;20.900;2022-10-15T07:42:53;36.45;;;19.45;;
70675;SDS011;59069;52.242;20.900;2022-10-15T07:45:19;39.03;;;20.50;;
70675;SDS011;59069;52.242;20.900;2022-10-15T07:47:44;36.17;;;19.47;;
70675;SDS011;59069;52.242;20.900;2022-10-15T07:50:09;34.70;;;18.87;;
70675;SDS011;59069;52.242;20.900;2022-10-15T07:52:35;33.30;;;17.73;;
70675;SDS011;59069;52.242;20.900;2022-10-15T07:55:00;33.13;;;18.60;;
70675;SDS011;59069;52.242;20.900;2022-10-15T07:57:26;39.97;;;19.03;;
70675;SDS011;59069;52.242;20.900;2022-10-15T07:59:51;34.17;;;18.93;;
70675;SDS011;59069;52.242;20.900;2022-10-15T08:02:17;34.80;;;17.67;;
70675;SDS011;59069;52.242;20.900;2022-10-15T08:04:42;71.33;;;35.83;;
70675;SDS011;59069;52.242;20.900;2022-10-15T08:07:08;42.10;;;23.97;;
70675;SDS011;59069;52.242;20.900;2022-10-15T08:09:33;36.03;;;18.37;;
70675;SDS011;59069;52.242;20.900;2022-10-15T08:11:59;33.90;;;18.03;;
70675;SDS011;59069;52.242;20.900;2022-10-15T08:14:24;34.87;;;18.93;;
70675;SDS011;59069;52.242;20.900;2022-10-15T08:16:49;35.70;;;17.40;;
70675;SDS011;59069;52.242;20.900;2022-10-15T08:19:15;35.57;;;18.50;;
70675;SDS011;59069;52.242;20.900;2022-10-15T08:21:42;35.10;;;18.55;;
70675;SDS011;59069;52.242;20.900;2022-10-15T08:24:10;34.75;;;19.15;;
70675;SDS011;59069;52.242;20.900;2022-10-15T08:26:36;38.58;;;18.30;;
70675;SDS011;59069;52.242;20.900;2022-10-15T08:29:02;66.13;;;24.40;;
70675;SDS011;59069;52.242;20.900;2022-10-15T08:31:27;44.33;;;20.65;;
70675;SDS011;59069;52.242;20.900;2022-10-15T08:33:53;34.23;;;18.57;;
70675;SDS011;59069;52.242;20.900;2022-10-15T08:36:18;36.77;;;18.47;;
70675;SDS011;59069;52.242;20.900;2022-10-15T08:38:44;35.35;;;18.60;;
70675;SDS011;59069;52.242;20.900;2022-10-15T08:41:21;30.97;;;17.27;;
70675;SDS011;59069;52.242;20.900;2022-10-15T08:43:53;33.67;;;17.70;;
70675;SDS011;59069;52.242;20.900;2022-10-15T08:46:20;30.90;;;17.13;;
70675;SDS011;59069;52.242;20.900;2022-10-15T08:48:50;35.30;;;20.00;;
70675;SDS011;59069;52.242;20.900;2022-10-15T08:51:19;33.43;;;16.97;;
70675;SDS011;59069;52.242;20.900;2022-10-15T08:53:48;30.35;;;16.80;;
70675;SDS011;59069;52.242;20.900;2022-10-15T08:56:37;32.15;;;16.50;;
70675;SDS011;59069;52.242;20.900;2022-10-15T09:07:32;28.58;;;16.48;;
70675;SDS011;59069;52.242;20.900;2022-10-15T09:10:22;30.55;;;17.20;;
70675;SDS011;59069;52.242;20.900;2022-10-15T09:13:17;32.25;;;16.65;;
70675;SDS011;59069;52.242;20.900;2022-10-15T09:15:55;30.00;;;16.27;;
70675;SDS011;59069;52.242;20.900;2022-10-15T09:18:26;31.47;;;15.77;;
70675;SDS011;59069;52.242;20.900;2022-10-15T09:20:54;33.13;;;16.88;;
70675;SDS011;59069;52.242;20.900;2022-10-15T09:23:22;31.58;;;17.08;;
70675;SDS011;59069;52.242;20.900;2022-10-15T09:25:56;32.78;;;18.63;;
70675;SDS011;59069;52.242;20.900;2022-10-15T09:28:31;37.55;;;17.98;;
70675;SDS011;59069;52.242;20.900;2022-10-15T09:31:07;29.20;;;16.47;;
70675;SDS011;59069;52.242;20.900;2022-10-15T09:33:39;34.22;;;18.35;;
70675;SDS011;59069;52.242;20.900;2022-10-15T09:44:43;34.77;;;17.23;;
70675;SDS011;59069;52.242;20.900;2022-10-15T09:47:15;39.88;;;22.05;;
70675;SDS011;59069;52.242;20.900;2022-10-15T09:49:50;29.60;;;16.63;;
70675;SDS011;59069;52.242;20.900;2022-10-15T09:52:24;26.80;;;15.67;;
70675;SDS011;59069;52.242;20.900;2022-10-15T09:58:10;28.15;;;16.23;;
70675;SDS011;59069;52.242;20.900;2022-10-15T10:03:15;25.70;;;14.90;;
70675;SDS011;59069;52.242;20.900;2022-10-15T10:05:41;25.95;;;14.93;;
70675;SDS011;59069;52.242;20.900;2022-10-15T10:10:32;28.83;;;15.60;;
70675;SDS011;59069;52.242;20.900;2022-10-15T10:13:01;29.60;;;15.52;;
70675;SDS011;59069;52.242;20.900;2022-10-15T10:15:34;27.23;;;15.50;;
70675;SDS011;59069;52.242;20.900;2022-10-15T10:18:03;27.52;;;15.68;;
70675;SDS011;59069;52.242;20.900;2022-10-15T10:20:31;27.25;;;15.10;;
70675;SDS011;59069;52.242;20.900;2022-10-15T10:22:59;27.48;;;15.75;;
70675;SDS011;59069;52.242;20.900;2022-10-15T10:28:02;25.63;;;14.77;;
70675;SDS011;59069;52.242;20.900;2022-10-15T10:30:32;26.50;;;14.88;;
70675;SDS011;59069;52.242;20.900;2022-10-15T10:32:59;25.30;;;14.20;;
70675;SDS011;59069;52.242;20.900;2022-10-15T10:35:32;24.05;;;14.70;;
70675;SDS011;59069;52.242;20.900;2022-10-15T10:38:16;26.20;;;14.20;;
70675;SDS011;59069;52.242;20.900;2022-10-15T10:40:49;24.95;;;14.10;;
70675;SDS011;59069;52.242;20.900;2022-10-15T10:46:00;23.27;;;14.17;;
70675;SDS011;59069;52.242;20.900;2022-10-15T10:48:43;24.87;;;13.70;;
70675;SDS011;59069;52.242;20.900;2022-10-15T10:51:31;24.33;;;14.05;;
70675;SDS011;59069;52.242;20.900;2022-10-15T10:54:00;24.77;;;14.07;;
70675;SDS011;59069;52.242;20.900;2022-10-15T10:56:36;22.92;;;12.48;;
70675;SDS011;59069;52.242;20.900;2022-10-15T11:01:46;24.50;;;13.37;;
70675;SDS011;59069;52.242;20.900;2022-10-15T11:04:18;23.45;;;13.18;;
70675;SDS011;59069;52.242;20.900;2022-10-15T11:07:12;24.30;;;12.95;;
70675;SDS011;59069;52.242;20.900;2022-10-15T11:10:05;22.98;;;13.30;;
70675;SDS011;59069;52.242;20.900;2022-10-15T11:15:23;23.13;;;13.00;;
70675;SDS011;59069;52.242;20.900;2022-10-15T11:21:12;21.15;;;12.13;;
70675;SDS011;59069;52.242;20.900;2022-10-15T11:29:05;22.43;;;13.03;;
70675;SDS011;59069;52.242;20.900;2022-10-15T11:40:20;23.52;;;12.90;;
70675;SDS011;59069;52.242;20.900;2022-10-15T11:43:00;22.37;;;12.03;;
70675;SDS011;59069;52.242;20.900;2022-10-15T11:50:58;24.98;;;13.10;;
70675;SDS011;59069;52.242;20.900;2022-10-15T11:58:39;21.17;;;12.77;;
70675;SDS011;59069;52.242;20.900;2022-10-15T12:01:20;19.38;;;11.57;;
70675;SDS011;59069;52.242;20.900;2022-10-15T12:04:01;22.88;;;12.75;;
70675;SDS011;59069;52.242;20.900;2022-10-15T12:06:31;22.65;;;11.77;;
70675;SDS011;59069;52.242;20.900;2022-10-15T12:09:00;19.93;;;12.47;;
70675;SDS011;59069;52.242;20.900;2022-10-15T12:14:17;19.23;;;11.32;;
70675;SDS011;59069;52.242;20.900;2022-10-15T12:19:17;27.40;;;17.00;;
70675;SDS011;59069;52.242;20.900;2022-10-15T12:30:12;18.92;;;11.82;;
70675;SDS011;59069;52.242;20.900;2022-10-15T12:32:46;20.73;;;11.45;;
70675;SDS011;59069;52.242;20.900;2022-10-15T12:37:41;20.50;;;11.63;;
70675;SDS011;59069;52.242;20.900;2022-10-15T12:42:50;18.35;;;11.57;;
70675;SDS011;59069;52.242;20.900;2022-10-15T12:45:33;19.00;;;11.82;;
70675;SDS011;59069;52.242;20.900;2022-10-15T12:50:33;20.23;;;12.23;;
70675;SDS011;59069;52.242;20.900;2022-10-15T12:53:03;19.38;;;11.50;;
70675;SDS011;59069;52.242;20.900;2022-10-15T12:57:59;19.63;;;11.95;;
70675;SDS011;59069;52.242;20.900;2022-10-15T13:00:30;17.77;;;11.27;;
70675;SDS011;59069;52.242;20.900;2022-10-15T13:03:13;19.35;;;11.48;;
70675;SDS011;59069;52.242;20.900;2022-10-15T13:05:47;17.10;;;10.90;;
70675;SDS011;59069;52.242;20.900;2022-10-15T13:08:23;20.45;;;11.30;;
70675;SDS011;59069;52.242;20.900;2022-10-15T13:10:56;20.33;;;11.38;;
70675;SDS011;59069;52.242;20.900;2022-10-15T13:13:24;20.63;;;11.47;;
70675;SDS011;59069;52.242;20.900;2022-10-15T13:15:55;19.27;;;11.63;;
70675;SDS011;59069;52.242;20.900;2022-10-15T13:18:25;19.65;;;12.07;;
70675;SDS011;59069;52.242;20.900;2022-10-15T13:20:53;20.08;;;12.27;;
70675;SDS011;59069;52.242;20.900;2022-10-15T13:23:24;21.63;;;11.68;;
70675;SDS011;59069;52.242;20.900;2022-10-15T13:26:10;19.00;;;11.33;;
70675;SDS011;59069;52.242;20.900;2022-10-15T13:28:40;20.50;;;11.85;;
70675;SDS011;59069;52.242;20.900;2022-10-15T13:31:23;20.58;;;11.80;;
70675;SDS011;59069;52.242;20.900;2022-10-15T13:33:51;21.00;;;12.00;;
70675;SDS011;59069;52.242;20.900;2022-10-15T13:36:20;19.83;;;11.90;;
70675;SDS011;59069;52.242;20.900;2022-10-15T13:38:58;19.90;;;11.80;;
70675;SDS011;59069;52.242;20.900;2022-10-15T13:41:30;19.50;;;12.07;;
70675;SDS011;59069;52.242;20.900;2022-10-15T13:43:59;20.95;;;12.35;;
70675;SDS011;59069;52.242;20.900;2022-10-15T13:46:28;22.70;;;13.10;;
70675;SDS011;59069;52.242;20.900;2022-10-15T13:48:56;21.20;;;12.27;;
70675;SDS011;59069;52.242;20.900;2022-10-15T13:51:32;21.70;;;12.90;;
70675;SDS011;59069;52.242;20.900;2022-10-15T13:54:05;20.98;;;13.13;;
70675;SDS011;59069;52.242;20.900;2022-10-15T13:56:33;21.13;;;12.95;;
70675;SDS011;59069;52.242;20.900;2022-10-15T13:58:59;24.27;;;13.05;;
70675;SDS011;59069;52.242;20.900;2022-10-15T14:01:26;21.17;;;12.35;;
70675;SDS011;59069;52.242;20.900;2022-10-15T14:03:55;21.83;;;12.03;;
70675;SDS011;59069;52.242;20.900;2022-10-15T14:06:29;22.08;;;12.38;;
70675;SDS011;59069;52.242;20.900;2022-10-15T14:08:58;20.65;;;12.13;;
70675;SDS011;59069;52.242;20.900;2022-10-15T14:11:25;21.25;;;12.10;;
70675;SDS011;59069;52.242;20.900;2022-10-15T14:13:54;25.48;;;13.68;;
70675;SDS011;59069;52.242;20.900;2022-10-15T14:16:23;21.03;;;12.63;;
70675;SDS011;59069;52.242;20.900;2022-10-15T14:19:16;22.45;;;13.70;;
70675;SDS011;59069;52.242;20.900;2022-10-15T14:21:43;25.45;;;13.77;;
70675;SDS011;59069;52.242;20.900;2022-10-15T14:24:16;23.00;;;13.23;;
70675;SDS011;59069;52.242;20.900;2022-10-15T14:26:44;23.27;;;13.35;;
70675;SDS011;59069;52.242;20.900;2022-10-15T14:29:21;22.53;;;13.90;;
70675;SDS011;59069;52.242;20.900;2022-10-15T14:31:51;22.35;;;13.23;;
70675;SDS011;59069;52.242;20.900;2022-10-15T14:36:53;21.35;;;12.18;;
70675;SDS011;59069;52.242;20.900;2022-10-15T14:39:29;22.40;;;12.83;;
70675;SDS011;59069;52.242;20.900;2022-10-15T14:41:57;21.88;;;12.20;;
70675;SDS011;59069;52.242;20.900;2022-10-15T14:44:25;23.10;;;13.13;;
70675;SDS011;59069;52.242;20.900;2022-10-15T14:47:03;21.20;;;11.93;;
70675;SDS011;59069;52.242;20.900;2022-10-15T14:49:32;20.67;;;12.27;;
70675;SDS011;59069;52.242;20.900;2022-10-15T14:51:59;19.95;;;12.57;;
70675;SDS011;59069;52.242;20.900;2022-10-15T14:54:36;22.83;;;13.10;;
70675;SDS011;59069;52.242;20.900;2022-10-15T14:57:09;24.90;;;12.20;;
70675;SDS011;59069;52.242;20.900;2022-10-15T14:59:50;22.15;;;12.52;;
70675;SDS011;59069;52.242;20.900;2022-10-15T15:02:18;20.03;;;11.73;;
70675;SDS011;59069;52.242;20.900;2022-10-15T15:04:45;21.77;;;12.88;;
70675;SDS011;59069;52.242;20.900;2022-10-15T15:07:19;19.70;;;12.10;;
70675;SDS011;59069;52.242;20.900;2022-10-15T15:09:49;21.90;;;11.67;;
70675;SDS011;59069;52.242;20.900;2022-10-15T15:12:19;20.65;;;11.75;;
70675;SDS011;59069;52.242;20.900;2022-10-15T15:14:47;23.05;;;12.13;;
70675;SDS011;59069;52.242;20.900;2022-10-15T15:17:14;23.63;;;11.93;;
70675;SDS011;59069;52.242;20.900;2022-10-15T15:19:42;23.30;;;11.95;;
70675;SDS011;59069;52.242;20.900;2022-10-15T15:22:09;20.63;;;11.90;;
70675;SDS011;59069;52.242;20.900;2022-10-15T15:24:37;19.98;;;12.43;;
70675;SDS011;59069;52.242;20.900;2022-10-15T15:27:03;19.27;;;11.68;;
70675;SDS011;59069;52.242;20.900;2022-10-15T15:29:28;20.40;;;11.13;;
70675;SDS011;59069;52.242;20.900;2022-10-15T15:31:54;25.00;;;12.60;;
70675;SDS011;59069;52.242;20.900;2022-10-15T15:34:19;21.60;;;12.60;;
70675;SDS011;59069;52.242;20.900;2022-10-15T15:36:44;47.40;;;29.80;;
70675;SDS011;59069;52.242;20.900;2022-10-15T15:39:10;27.07;;;16.37;;
70675;SDS011;59069;52.242;20.900;2022-10-15T15:41:35;27.67;;;15.83;;
70675;SDS011;59069;52.242;20.900;2022-10-15T15:44:00;23.43;;;13.07;;
70675;SDS011;59069;52.242;20.900;2022-10-15T15:46:28;25.20;;;13.45;;
70675;SDS011;59069;52.242;20.900;2022-10-15T15:48:54;22.42;;;13.45;;
70675;SDS011;59069;52.242;20.900;2022-10-15T15:51:26;22.87;;;13.83;;
70675;SDS011;59069;52.242;20.900;2022-10-15T15:53:56;24.55;;;13.45;;
70675;SDS011;59069;52.242;20.900;2022-10-15T15:56:22;23.63;;;13.45;;
70675;SDS011;59069;52.242;20.900;2022-10-15T15:58:48;24.37;;;13.80;;
70675;SDS011;59069;52.242;20.900;2022-10-15T16:01:17;21.97;;;13.23;;
70675;SDS011;59069;52.242;20.900;2022-10-15T16:03:42;22.38;;;13.68;;
70675;SDS011;59069;52.242;20.900;2022-10-15T16:06:08;21.97;;;13.07;;
70675;SDS011;59069;52.242;20.900;2022-10-15T16:08:34;22.67;;;13.45;;
70675;SDS011;59069;52.242;20.900;2022-10-15T16:11:00;23.77;;;13.57;;
70675;SDS011;59069;52.242;20.900;2022-10-15T16:13:26;24.07;;;13.43;;
70675;SDS011;59069;52.242;20.900;2022-10-15T16:15:52;22.45;;;13.85;;
70675;SDS011;59069;52.242;20.900;2022-10-15T16:18:17;24.03;;;13.37;;